Time;durP1;ratioP1;P1;durP2;ratioP2;P2;SDS_P1;SDS_P2;PMS_P1;PMS_P2;Temp;Humidity;BMP_temperature;BMP_pressure;BME280_temperature;BME280_humidity;BME280_pressure;Samples;Min_cycle;Max_cycle;Signal;HPM_P1;HPM_P2
2022/12/30 05:46:00;;;;;;;;;;;;;;;;;;5974270;23;19948;-81
2022/12/30 05:48:26;;;;;;;;;;;;;;;;;;5004781;28;20395;-81
2022/12/30 05:50:52;;;;;;;;;;;;;;;;;;5000775;28;20004;-81
2022/12/30 05:53:21;;;;;;;;;;;;;;;;;;5002180;28;19910;-81
2022/12/30 05:55:47;;;;;;;;;;;;;;;;;;4999362;28;19928;-80
2022/12/30 05:58:14;;;;;;;;;;;;;;;;;;5002346;28;19910;-80
2022/12/30 06:00:40;;;;;;;;;;;;;;;;;;5001252;28;19926;-81
2022/12/30 06:03:08;;;;;;;;;;;;;;;;;;5001176;28;19909;-79
2022/12/30 08:39:00;;;;;;;;;;;;;;;;;;5500409;23;19937;-81
2022/12/30 09:52:03;;;;;;;;;;;;;;;;;;6109714;23;19920;-80
2022/12/30 10:17:53;;;;;;;;;;;;;;;;;;5378753;23;19999;-83
2022/12/30 10:20:29;;;;;;;;;;;;;;;;;;5018631;28;19917;-82
2022/12/30 10:26:00;;;;;;;;;;;;;;;;;;5019399;28;19969;-83
2022/12/30 10:36:17;;;;;;;;;;;;;;;;;;5606510;23;19937;-80
2022/12/30 11:28:04;;;;;;;;;;;;;;;;;;5056848;23;19930;-84
2022/12/30 11:33:35;;;;;;;;;;;;;;;;;;5178762;23;19952;-81
2022/12/30 11:36:01;;;;;;;;;;;;;;;;;;4990903;28;20418;-84
2022/12/30 11:38:33;;;;;;;;;;;;;;;;;;4996330;28;19910;-84
2022/12/30 11:41:04;;;;;;;;;;;;;;;;;;4998269;28;19981;-83
2022/12/30 11:43:30;;;;;;;;;;;;;;;;;;4992709;28;19914;-84
2022/12/30 11:45:59;;;;;;;;;;;;;;;;;;5013916;28;19935;-83
2022/12/30 11:48:25;;;;;;;;;;;;;;;;;;4994483;28;19925;-83
2022/12/30 11:50:52;;;;;;;;;;;;;;;;;;5005217;28;19933;-83
2022/12/30 11:53:24;;;;;;;;;;;;;;;;;;4987825;28;19909;-83
2022/12/30 11:55:50;;;;;;;;;;;;;;;;;;4988335;28;19910;-83
2022/12/30 11:58:18;;;;;;;;;;;;;;;;;;4992582;28;19894;-83
2022/12/30 12:00:47;;;;;;;;;;;;;;;;;;5006598;28;19910;-83
2022/12/30 12:03:13;;;;;;;;;;;;;;;;;;4987231;28;19962;-83
2022/12/30 12:05:43;;;;;;;;;;;;;;;;;;4995601;28;19913;-83
2022/12/30 12:10:56;;;;;;;;;;;;;;;;;;5009377;28;19929;-83
2022/12/30 12:13:24;;;;;;;;;;;;;;;;;;4991758;28;19910;-83
2022/12/30 12:15:52;;;;;;;;;;;;;;;;;;5010666;28;19910;-83
2022/12/30 12:18:19;;;;;;;;;;;;;;;;;;5013265;28;19917;-83
2022/12/30 12:20:46;;;;;;;;;;;;;;;;;;4986768;28;19917;-84
2022/12/30 12:23:12;;;;;;;;;;;;;;;;;;5007722;28;20396;-83
2022/12/30 12:25:38;;;;;;;;;;;;;;;;;;4990395;28;19910;-83
2022/12/30 12:28:07;;;;;;;;;;;;;;;;;;4991052;28;19914;-84
2022/12/30 12:51:31;;;;;;;;;;;;;;;;;;4992007;28;20025;-83
2022/12/30 12:59:37;;;;;;;;;;;;;;;;;;4994132;28;19982;-84
2022/12/30 13:02:03;;;;;;;;;;;;;;;;;;4993182;28;19917;-84
2022/12/30 13:04:30;;;;;;;;;;;;;;;;;;4993562;28;19942;-85
2022/12/30 13:06:57;;;;;;;;;;;;;;;;;;4996826;28;19942;-83
2022/12/30 13:09:23;;;;;;;;;;;;;;;;;;4979102;28;19914;-80
2022/12/30 13:11:49;;;;;;;;;;;;;;;;;;4975568;28;19921;-78
2022/12/30 13:14:15;;;;;;;;;;;;;;;;;;4973654;28;19910;-79
2022/12/30 13:16:41;;;;;;;;;;;;;;;;;;4973982;28;20319;-80
2022/12/30 13:19:07;;;;;;;;;;;;;;;;;;4974598;28;19917;-79
2022/12/30 13:21:33;;;;;;;;;;;;;;;;;;4974449;28;19910;-81
2022/12/30 13:23:59;;;;;;;;;;;;;;;;;;4977493;28;19914;-79
2022/12/30 13:26:24;;;;;;;;;;;;;;;;;;4984837;28;20390;-79
2022/12/30 13:28:50;;;;;;;;;;;;;;;;;;4970582;28;19921;-79
2022/12/30 13:31:16;;;;;;;;;;;;;;;;;;4976318;28;19934;-78
2022/12/30 13:33:42;;;;;;;;;;;;;;;;;;4972408;28;19910;-79
2022/12/30 13:36:08;;;;;;;;;;;;;;;;;;4975551;28;19937;-80
2022/12/30 13:38:34;;;;;;;;;;;;;;;;;;4974772;28;19922;-79
2022/12/30 13:41:00;;;;;;;;;;;;;;;;;;4974797;28;19911;-79
2022/12/30 13:43:26;;;;;;;;;;;;;;;;;;4974269;28;19910;-79
2022/12/30 13:45:57;;;;;;;;;;;;;;;;;;4990062;28;20004;-80
2022/12/30 13:48:23;;;;;;;;;;;;;;;;;;4990681;28;19953;-79
2022/12/30 13:50:49;;;;;;;;;;;;;;;;;;4989303;28;19980;-79
2022/12/30 13:53:15;;;;;;;;;;;;;;;;;;4975508;28;19920;-79
2022/12/30 13:55:41;;;;;;;;;;;;;;;;;;4987088;28;19981;-81
2022/12/30 13:58:08;;;;;;;;;;;;;;;;;;5008697;28;19914;-86
2022/12/30 14:00:34;;;;;;;;;;;;;;;;;;5073593;23;19973;-81
2022/12/30 14:03:01;;;;;;;;;;;;;;;;;;4999743;28;19917;-81
2022/12/30 14:10:47;;;;;;;;;;;;;;;;;;5092223;23;19930;-82
2022/12/30 14:13:13;;;;;;;;;;;;;;;;;;5227040;23;19940;-82
2022/12/30 14:18:24;;;;;;;;;;;;;;;;;;5076264;23;19949;-81
2022/12/30 14:20:50;;;;;;;;;;;;;;;;;;4994912;28;20371;-80
2022/12/30 14:23:16;;;;;;;;;;;;;;;;;;4993813;28;19917;-81
2022/12/30 14:25:42;;;;;;;;;;;;;;;;;;4992670;28;19910;-77
2022/12/30 14:28:08;;;;;;;;;;;;;;;;;;4993233;28;19909;-80
2022/12/30 14:30:34;;;;;;;;;;;;;;;;;;4992953;28;19910;-76
2022/12/30 14:33:00;;;;;;;;;;;;;;;;;;4993095;28;19917;-77
2022/12/30 14:35:26;;;;;;;;;;;;;;;;;;4992480;28;19910;-80
2022/12/30 14:37:52;;;;;;;;;;;;;;;;;;4993794;28;20390;-79
2022/12/30 14:40:17;;;;;;;;;;;;;;;;;;4992588;28;19910;-79
2022/12/30 14:42:43;;;;;;;;;;;;;;;;;;4994227;28;19933;-80
2022/12/30 14:45:09;;;;;;;;;;;;;;;;;;4994045;28;20374;-79
2022/12/30 14:47:35;;;;;;;;;;;;;;;;;;4993676;28;19934;-80
2022/12/30 14:50:01;;;;;;;;;;;;;;;;;;4995932;28;20406;-81
2022/12/30 14:52:27;;;;;;;;;;;;;;;;;;4995654;28;20386;-80
2022/12/30 14:54:53;;;;;;;;;;;;;;;;;;5019622;23;19928;-77
2022/12/30 14:57:19;;;;;;;;;;;;;;;;;;4975924;28;20379;-77
2022/12/30 14:59:45;;;;;;;;;;;;;;;;;;4975126;28;19910;-79
2022/12/30 15:02:11;;;;;;;;;;;;;;;;;;4993671;28;20404;-76
2022/12/30 15:04:36;;;;;;;;;;;;;;;;;;4992862;28;19959;-79
2022/12/30 15:07:02;;;;;;;;;;;;;;;;;;4995722;28;20001;-80
2022/12/30 15:09:28;;;;;;;;;;;;;;;;;;4994469;28;20378;-79
2022/12/30 15:11:54;;;;;;;;;;;;;;;;;;4978019;28;19964;-79
2022/12/30 15:14:20;;;;;;;;;;;;;;;;;;4994453;28;19964;-79
2022/12/30 15:16:46;;;;;;;;;;;;;;;;;;4976775;28;19921;-79
2022/12/30 15:19:12;;;;;;;;;;;;;;;;;;4993423;28;19917;-78
2022/12/30 15:21:39;;;;;;;;;;;;;;;;;;5013272;28;19929;-83
2022/12/30 15:34:39;;;;;;;;;;;;;;;;;;5585091;23;19919;-79
2022/12/30 15:39:49;;;;;;;;;;;;;;;;;;5014100;28;20558;-78
2022/12/30 15:42:15;;;;;;;;;;;;;;;;;;4996439;28;20040;-79
2022/12/30 15:44:41;;;;;;;;;;;;;;;;;;5015054;28;19909;-81
2022/12/30 15:47:07;;;;;;;;;;;;;;;;;;5014336;28;20071;-80
2022/12/30 15:54:47;;;;;;;;;;;;;;;;;;5928832;23;19953;-80
2022/12/30 15:57:13;;;;;;;;;;;;;;;;;;4996838;28;19917;-80
2022/12/30 16:08:05;;;;;;;;;;;;;;;;;;5014779;28;20346;-81
2022/12/30 16:10:31;;;;;;;;;;;;;;;;;;4996672;28;20022;-80
2022/12/30 16:12:57;;;;;;;;;;;;;;;;;;4997045;28;20413;-80
2022/12/30 16:15:23;;;;;;;;;;;;;;;;;;4997451;28;19916;-80
2022/12/30 16:17:49;;;;;;;;;;;;;;;;;;4997023;28;19921;-80
2022/12/30 16:20:15;;;;;;;;;;;;;;;;;;4996450;28;19958;-80
2022/12/30 16:22:41;;;;;;;;;;;;;;;;;;4996977;28;19949;-80
2022/12/30 16:25:07;;;;;;;;;;;;;;;;;;5013812;28;19960;-80
2022/12/30 16:27:33;;;;;;;;;;;;;;;;;;4996571;28;19918;-80
2022/12/30 16:35:20;;;;;;;;;;;;;;;;;;5351535;23;19940;-81
2022/12/30 16:37:46;;;;;;;;;;;;;;;;;;4997311;28;20012;-78
2022/12/30 16:40:12;;;;;;;;;;;;;;;;;;4998302;28;19956;-78
2022/12/30 16:42:38;;;;;;;;;;;;;;;;;;5015846;28;19910;-78
2022/12/30 16:45:04;;;;;;;;;;;;;;;;;;4998285;28;20417;-77
2022/12/30 16:47:30;;;;;;;;;;;;;;;;;;5014661;28;19917;-76
2022/12/30 16:49:56;;;;;;;;;;;;;;;;;;5016015;28;20488;-77
2022/12/30 16:52:23;;;;;;;;;;;;;;;;;;4997883;28;19916;-77
2022/12/30 16:54:49;;;;;;;;;;;;;;;;;;4997829;28;19917;-77
2022/12/30 16:57:15;;;;;;;;;;;;;;;;;;5015405;28;19913;-78
2022/12/30 16:59:41;;;;;;;;;;;;;;;;;;5015529;28;19910;-78
2022/12/30 17:02:08;;;;;;;;;;;;;;;;;;4998473;28;19957;-78
2022/12/30 17:04:34;;;;;;;;;;;;;;;;;;5014327;28;19956;-77
2022/12/30 17:07:00;;;;;;;;;;;;;;;;;;4988223;28;19909;-80
2022/12/30 17:12:10;;;;;;;;;;;;;;;;;;5011081;28;19911;-77
2022/12/30 17:14:36;;;;;;;;;;;;;;;;;;4998987;28;19909;-80
2022/12/30 17:17:02;;;;;;;;;;;;;;;;;;4999227;28;20374;-78
2022/12/30 17:19:33;;;;;;;;;;;;;;;;;;4996681;28;20362;-78
2022/12/30 17:21:59;;;;;;;;;;;;;;;;;;4997373;28;19910;-78
2022/12/30 17:24:24;;;;;;;;;;;;;;;;;;5021044;28;19913;-80
2022/12/30 17:26:50;;;;;;;;;;;;;;;;;;4997970;28;19916;-78
2022/12/30 17:29:17;;;;;;;;;;;;;;;;;;5015217;28;19975;-78
2022/12/30 17:31:43;;;;;;;;;;;;;;;;;;4997312;28;19913;-80
2022/12/30 17:34:08;;;;;;;;;;;;;;;;;;5014744;28;19920;-78
2022/12/30 17:36:34;;;;;;;;;;;;;;;;;;4997636;28;19921;-78
2022/12/30 17:39:00;;;;;;;;;;;;;;;;;;4997682;28;20306;-78
2022/12/30 17:41:26;;;;;;;;;;;;;;;;;;4997675;28;19956;-78
2022/12/30 17:43:52;;;;;;;;;;;;;;;;;;5015123;28;19932;-78
2022/12/30 17:46:18;;;;;;;;;;;;;;;;;;4992722;28;19957;-78
2022/12/30 17:48:44;;;;;;;;;;;;;;;;;;5012849;28;19996;-78
2022/12/30 17:51:10;;;;;;;;;;;;;;;;;;5017210;28;20000;-78
2022/12/30 17:53:36;;;;;;;;;;;;;;;;;;5017282;28;19909;-78
2022/12/30 17:56:03;;;;;;;;;;;;;;;;;;5016774;28;19967;-79
2022/12/30 17:58:28;;;;;;;;;;;;;;;;;;5016865;28;19966;-79
2022/12/30 18:00:54;;;;;;;;;;;;;;;;;;5017020;28;19913;-78
2022/12/30 18:03:20;;;;;;;;;;;;;;;;;;5016608;28;19909;-79
2022/12/30 18:05:46;;;;;;;;;;;;;;;;;;5016712;28;19909;-80
2022/12/30 18:08:12;;;;;;;;;;;;;;;;;;5034536;28;20293;-79
2022/12/30 18:10:38;;;;;;;;;;;;;;;;;;5034566;28;19955;-78
2022/12/30 18:13:04;;;;;;;;;;;;;;;;;;5016424;28;19909;-78
2022/12/30 18:15:30;;;;;;;;;;;;;;;;;;5016272;28;19909;-78
2022/12/30 18:17:56;;;;;;;;;;;;;;;;;;5016489;28;20365;-79
2022/12/30 18:20:22;;;;;;;;;;;;;;;;;;5016128;28;19941;-78
2022/12/30 18:22:48;;;;;;;;;;;;;;;;;;5016494;28;19909;-78
2022/12/30 18:25:14;;;;;;;;;;;;;;;;;;5034314;28;20361;-78
2022/12/30 18:27:39;;;;;;;;;;;;;;;;;;5016156;28;19916;-79
2022/12/30 18:30:05;;;;;;;;;;;;;;;;;;5016313;28;20427;-79
2022/12/30 18:32:31;;;;;;;;;;;;;;;;;;5016362;28;19909;-79
2022/12/30 18:34:57;;;;;;;;;;;;;;;;;;5016233;28;20039;-79
2022/12/30 18:37:23;;;;;;;;;;;;;;;;;;5016130;28;19936;-79
2022/12/30 18:39:49;;;;;;;;;;;;;;;;;;5015460;28;19916;-78
2022/12/30 18:42:15;;;;;;;;;;;;;;;;;;5016176;28;19913;-78
2022/12/30 18:44:41;;;;;;;;;;;;;;;;;;5016282;28;20332;-78
2022/12/30 18:47:07;;;;;;;;;;;;;;;;;;5033678;28;20009;-79
2022/12/30 18:49:32;;;;;;;;;;;;;;;;;;5015184;28;19913;-77
2022/12/30 18:51:58;;;;;;;;;;;;;;;;;;5015826;28;20388;-78
2022/12/30 18:54:24;;;;;;;;;;;;;;;;;;5016160;28;19909;-78
2022/12/30 18:56:50;;;;;;;;;;;;;;;;;;4995780;28;20395;-78
2022/12/30 18:59:16;;;;;;;;;;;;;;;;;;4989847;28;19916;-79
2022/12/30 19:01:42;;;;;;;;;;;;;;;;;;4993796;28;19910;-79
2022/12/30 19:04:09;;;;;;;;;;;;;;;;;;5013583;28;19953;-78
2022/12/30 19:06:35;;;;;;;;;;;;;;;;;;4995926;28;19914;-78
2022/12/30 19:09:01;;;;;;;;;;;;;;;;;;4993145;28;19916;-78
2022/12/30 19:11:27;;;;;;;;;;;;;;;;;;4987394;28;20354;-79
2022/12/30 19:13:53;;;;;;;;;;;;;;;;;;4994010;28;19914;-79
2022/12/30 19:16:19;;;;;;;;;;;;;;;;;;4994938;28;19914;-78
2022/12/30 19:18:45;;;;;;;;;;;;;;;;;;5013524;28;19913;-78
2022/12/30 19:21:11;;;;;;;;;;;;;;;;;;4996018;28;19905;-78
2022/12/30 19:23:37;;;;;;;;;;;;;;;;;;4995576;28;19913;-79
2022/12/30 19:26:02;;;;;;;;;;;;;;;;;;5013288;28;20365;-78
2022/12/30 19:28:28;;;;;;;;;;;;;;;;;;4995806;28;19909;-78
2022/12/30 19:30:54;;;;;;;;;;;;;;;;;;4994816;28;20361;-78
2022/12/30 19:33:20;;;;;;;;;;;;;;;;;;4995698;28;19910;-78
2022/12/30 19:35:46;;;;;;;;;;;;;;;;;;5012938;28;20394;-79
2022/12/30 19:38:13;;;;;;;;;;;;;;;;;;5012865;28;19932;-79
2022/12/30 19:40:39;;;;;;;;;;;;;;;;;;4995388;28;19909;-79
2022/12/30 19:43:05;;;;;;;;;;;;;;;;;;4995192;28;19913;-78
2022/12/30 19:45:31;;;;;;;;;;;;;;;;;;5012615;28;19933;-78
2022/12/30 19:47:57;;;;;;;;;;;;;;;;;;5012786;28;19909;-79
2022/12/30 19:50:23;;;;;;;;;;;;;;;;;;4994506;28;20237;-78
2022/12/30 19:52:49;;;;;;;;;;;;;;;;;;5010699;28;20402;-78
2022/12/30 19:55:14;;;;;;;;;;;;;;;;;;4995442;28;19979;-79
2022/12/30 19:57:40;;;;;;;;;;;;;;;;;;4994808;28;19913;-78
2022/12/30 20:00:06;;;;;;;;;;;;;;;;;;5012670;28;19914;-78
2022/12/30 20:02:32;;;;;;;;;;;;;;;;;;4995467;28;20362;-78
2022/12/30 20:04:58;;;;;;;;;;;;;;;;;;4996078;28;19909;-78
2022/12/30 20:07:24;;;;;;;;;;;;;;;;;;4993402;28;20000;-78
2022/12/30 20:09:50;;;;;;;;;;;;;;;;;;4999086;28;20000;-78
2022/12/30 20:12:16;;;;;;;;;;;;;;;;;;4998845;28;19905;-78
2022/12/30 20:14:42;;;;;;;;;;;;;;;;;;4998225;28;19909;-79
2022/12/30 20:17:07;;;;;;;;;;;;;;;;;;5016633;28;19913;-79
2022/12/30 20:19:33;;;;;;;;;;;;;;;;;;4998780;28;19910;-78
2022/12/30 20:21:59;;;;;;;;;;;;;;;;;;5016688;28;19910;-79
2022/12/30 20:24:27;;;;;;;;;;;;;;;;;;5016528;28;19913;-78
2022/12/30 20:26:53;;;;;;;;;;;;;;;;;;5016221;28;19909;-78
2022/12/30 20:29:19;;;;;;;;;;;;;;;;;;4998696;28;19909;-78
2022/12/30 20:31:45;;;;;;;;;;;;;;;;;;4998670;28;20015;-78
2022/12/30 20:34:11;;;;;;;;;;;;;;;;;;4998656;28;19968;-78
2022/12/30 20:36:37;;;;;;;;;;;;;;;;;;5015839;28;19920;-78
2022/12/30 20:39:03;;;;;;;;;;;;;;;;;;4998603;28;19909;-79
2022/12/30 20:41:28;;;;;;;;;;;;;;;;;;4998639;28;19913;-79
2022/12/30 20:43:54;;;;;;;;;;;;;;;;;;4998970;28;19909;-78
2022/12/30 20:46:20;;;;;;;;;;;;;;;;;;4998667;28;19909;-80
2022/12/30 20:48:46;;;;;;;;;;;;;;;;;;4998413;28;19909;-79
2022/12/30 20:51:12;;;;;;;;;;;;;;;;;;4998872;28;19909;-78
2022/12/30 20:53:38;;;;;;;;;;;;;;;;;;4998726;28;19913;-78
2022/12/30 20:56:04;;;;;;;;;;;;;;;;;;4998271;28;19913;-79
2022/12/30 20:58:30;;;;;;;;;;;;;;;;;;4998291;28;19909;-78
2022/12/30 21:00:56;;;;;;;;;;;;;;;;;;4991265;28;19921;-79
2022/12/30 21:03:21;;;;;;;;;;;;;;;;;;4998726;28;19979;-79
2022/12/30 21:05:47;;;;;;;;;;;;;;;;;;5016000;28;20012;-79
2022/12/30 21:08:13;;;;;;;;;;;;;;;;;;5015845;28;19909;-78
2022/12/30 21:10:39;;;;;;;;;;;;;;;;;;5016091;28;19910;-78
2022/12/30 21:13:05;;;;;;;;;;;;;;;;;;5016036;28;19913;-78
2022/12/30 21:15:31;;;;;;;;;;;;;;;;;;5016477;28;19910;-79
2022/12/30 21:17:57;;;;;;;;;;;;;;;;;;4999042;28;19920;-79
2022/12/30 21:20:23;;;;;;;;;;;;;;;;;;4998532;28;19963;-79
2022/12/30 21:22:48;;;;;;;;;;;;;;;;;;5016128;28;19916;-78
2022/12/30 21:25:14;;;;;;;;;;;;;;;;;;5016155;28;19953;-78
2022/12/30 21:27:40;;;;;;;;;;;;;;;;;;5002034;28;19956;-79
2022/12/30 21:30:06;;;;;;;;;;;;;;;;;;4998000;28;19910;-79
2022/12/30 21:32:32;;;;;;;;;;;;;;;;;;4999217;28;19916;-79
2022/12/30 21:34:58;;;;;;;;;;;;;;;;;;4998806;28;20374;-78
2022/12/30 21:37:24;;;;;;;;;;;;;;;;;;4998724;28;19949;-79
2022/12/30 22:04:47;;;;;;;;;;;;;;;;;;4952898;28;20114;-79
2022/12/30 22:07:13;;;;;;;;;;;;;;;;;;4978697;28;19952;-79
2022/12/30 22:09:39;;;;;;;;;;;;;;;;;;4994545;28;19910;-79
2022/12/30 22:12:05;;;;;;;;;;;;;;;;;;4995077;28;19920;-79
2022/12/30 22:14:31;;;;;;;;;;;;;;;;;;4977927;28;19910;-78
2022/12/30 22:16:57;;;;;;;;;;;;;;;;;;4980429;28;19913;-79
2022/12/30 22:19:23;;;;;;;;;;;;;;;;;;5021009;28;20293;-79
2022/12/30 22:21:48;;;;;;;;;;;;;;;;;;5035017;28;19909;-78
2022/12/30 22:24:14;;;;;;;;;;;;;;;;;;5017292;28;19959;-80
2022/12/30 22:26:40;;;;;;;;;;;;;;;;;;5016891;28;19943;-80
2022/12/30 22:29:06;;;;;;;;;;;;;;;;;;5017208;28;19913;-78
2022/12/30 22:31:32;;;;;;;;;;;;;;;;;;5016449;28;20293;-79
2022/12/30 22:33:58;;;;;;;;;;;;;;;;;;5016932;28;20297;-78
2022/12/30 22:36:24;;;;;;;;;;;;;;;;;;5016723;28;19910;-78
2022/12/30 22:38:50;;;;;;;;;;;;;;;;;;5024748;28;20025;-80
2022/12/30 22:41:16;;;;;;;;;;;;;;;;;;4997322;28;19920;-80
2022/12/30 22:43:41;;;;;;;;;;;;;;;;;;4997440;28;19963;-80
2022/12/30 22:46:09;;;;;;;;;;;;;;;;;;4996737;28;19944;-79
2022/12/30 22:48:35;;;;;;;;;;;;;;;;;;4996508;28;19913;-78
2022/12/30 22:51:01;;;;;;;;;;;;;;;;;;4978055;28;19956;-79
2022/12/30 22:53:34;;;;;;;;;;;;;;;;;;5092643;28;19912;-78
2022/12/30 22:56:00;;;;;;;;;;;;;;;;;;5091011;28;19992;-80
2022/12/30 22:58:25;;;;;;;;;;;;;;;;;;5090569;28;20307;-77
2022/12/30 23:00:51;;;;;;;;;;;;;;;;;;5091271;28;19908;-79
2022/12/30 23:03:17;;;;;;;;;;;;;;;;;;5092817;28;19908;-76
2022/12/30 23:05:44;;;;;;;;;;;;;;;;;;5091964;28;19923;-77
2022/12/30 23:08:10;;;;;;;;;;;;;;;;;;5091147;28;19908;-79
2022/12/30 23:10:36;;;;;;;;;;;;;;;;;;5091916;28;19995;-80
2022/12/30 23:18:31;;;;;;;;;;;;;;;;;;5092460;28;20548;-77
2022/12/30 23:20:57;;;;;;;;;;;;;;;;;;5092655;28;19909;-77
2022/12/30 23:26:07;;;;;;;;;;;;;;;;;;5091909;28;19915;-80
2022/12/30 23:28:33;;;;;;;;;;;;;;;;;;5090733;28;19904;-79
2022/12/30 23:30:59;;;;;;;;;;;;;;;;;;5090726;28;20475;-79
2022/12/30 23:33:25;;;;;;;;;;;;;;;;;;5090408;28;20015;-82
2022/12/30 23:35:51;;;;;;;;;;;;;;;;;;5090380;28;19908;-79
2022/12/30 23:38:17;;;;;;;;;;;;;;;;;;5089912;28;20439;-80
2022/12/30 23:40:43;;;;;;;;;;;;;;;;;;5090141;28;19915;-76
2022/12/30 23:43:09;;;;;;;;;;;;;;;;;;5091782;28;19909;-77
2022/12/30 23:45:34;;;;;;;;;;;;;;;;;;5090293;28;19966;-77
2022/12/30 23:48:00;;;;;;;;;;;;;;;;;;5090472;28;20015;-77
2022/12/30 23:50:26;;;;;;;;;;;;;;;;;;5090199;28;19917;-76
2022/12/30 23:52:52;;;;;;;;;;;;;;;;;;5089963;28;19931;-77
2022/12/30 23:55:18;;;;;;;;;;;;;;;;;;5089605;28;19916;-77
2022/12/30 23:57:46;;;;;;;;;;;;;;;;;;5090173;28;20009;-77
